Impacts TAF Board INFO
FOR SITUATIONAL AWARENESS. NOT TO BE USED FOR FLIGHT PLANNING PURPOSES.
IDs:

KPDX - Portland Intl Arpt, OR, US

Issued at 2333 UTC 17 Aug 2018
Updated at 0127 UTC 18 Aug 2018
Potential Impact None Slight Moderate High
Time0053Z 18/02Z 18/03Z 18/04Z 18/05Z 18/06Z 18/07Z 18/08Z 18/09Z 18/10Z 18/11Z 18/12Z 18/13Z 18/14Z>>
Type OBS PRVL PRVL PRVL PRVL PRVL PRVL PRVL PRVL PRVL PRVL PRVL PRVL PRVL
VIS 10 >6 >6 >6 >6 >6 >6 >6 >6 >6 >6 >6 >6 >6
CIG -- -- -- -- -- -- -- -- -- -- -- -- -- --
Cover CLR SKC SKC SKC SKC SKC SKC SKC SKC SKC SKC SKC SCT SCT
FltCat VFR VFR VFR VFR VFR VFR VFR VFR VFR VFR VFR VFR VFR VFR
WX -- -- -- -- -- -- -- -- -- -- -- -- -- --
WDir VRB 300 300 300 300 300 300 300 300 300 300 300 320 320
WSpd 4 8 8 8 6 6 6 6 6 6 6 6 3 3
WGst -- -- -- -- -- -- -- -- -- -- -- -- -- --

Raw TAF
KPDX 172333Z 1800/1824 30008KT P6SM SKC
  FM180500 30006KT P6SM SKC
  FM181300 32003KT P6SM FEW008 SCT012
  FM181700 30006KT P6SM SKC


Raw METAR
KPDX 180053Z VRB04KT 10SM CLR 27/09 A3017 RMK AO2 SLP214 T02720094
KPDX 172353Z 30008KT 10SM CLR 27/09 A3018 RMK AO2 SLP218 T02670089 10272 20178 56015
KPDX 172253Z 27007KT 240V310 10SM CLR 26/09 A3019 RMK AO2 SLP222 T02560089

METAR Board
Radar Display
Forecast Discussion

FOR SITUATIONAL AWARENESS. NOT TO BE USED FOR FLIGHT PLANNING PURPOSES.